sensor_id;sensor_type;location;lat;lon;timestamp;pressure;altitude;pressure_sealevel;temperature;humidity
66801;BME280;53703;50.326;19.122;2023-05-17T00:01:06;98330.88;;;20.05;53.06
66801;BME280;53703;50.326;19.122;2023-05-17T00:04:00;98327.60;;;20.07;52.96
66801;BME280;53703;50.326;19.122;2023-05-17T00:06:54;98333.14;;;20.08;53.01
66801;BME280;53703;50.326;19.122;2023-05-17T00:09:48;98334.34;;;20.18;52.71
66801;BME280;53703;50.326;19.122;2023-05-17T00:12:42;98331.69;;;20.01;53.11
66801;BME280;53703;50.326;19.122;2023-05-17T00:15:59;98331.27;;;20.08;52.89
66801;BME280;53703;50.326;19.122;2023-05-17T00:18:53;98336.14;;;20.07;52.97
66801;BME280;53703;50.326;19.122;2023-05-17T00:21:48;98335.04;;;20.13;52.70
66801;BME280;53703;50.326;19.122;2023-05-17T00:28:09;98331.30;;;20.22;52.42
66801;BME280;53703;50.326;19.122;2023-05-17T00:31:08;98333.51;;;20.26;52.39
66801;BME280;53703;50.326;19.122;2023-05-17T00:34:03;98329.56;;;20.06;52.85
66801;BME280;53703;50.326;19.122;2023-05-17T00:36:57;98324.78;;;19.81;53.31
66801;BME280;53703;50.326;19.122;2023-05-17T00:39:51;98324.30;;;19.80;53.27
66801;BME280;53703;50.326;19.122;2023-05-17T00:42:45;98328.88;;;20.08;52.69
66801;BME280;53703;50.326;19.122;2023-05-17T00:45:40;98326.98;;;20.13;52.48
66801;BME280;53703;50.326;19.122;2023-05-17T00:48:34;98330.67;;;20.16;52.44
66801;BME280;53703;50.326;19.122;2023-05-17T00:51:30;98331.92;;;20.10;52.52
66801;BME280;53703;50.326;19.122;2023-05-17T00:54:25;98326.38;;;20.05;52.75
66801;BME280;53703;50.326;19.122;2023-05-17T00:57:20;98321.92;;;19.85;52.97
66801;BME280;53703;50.326;19.122;2023-05-17T01:00:16;98322.57;;;19.82;52.99
66801;BME280;53703;50.326;19.122;2023-05-17T01:03:10;98319.72;;;20.04;52.64
66801;BME280;53703;50.326;19.122;2023-05-17T01:06:05;98317.23;;;19.93;52.71
66801;BME280;53703;50.326;19.122;2023-05-17T01:08:59;98312.25;;;20.12;52.42
66801;BME280;53703;50.326;19.122;2023-05-17T01:12:02;98319.16;;;20.20;52.20
66801;BME280;53703;50.326;19.122;2023-05-17T01:15:10;98322.42;;;20.26;52.14
66801;BME280;53703;50.326;19.122;2023-05-17T01:18:18;98317.50;;;20.00;52.53
66801;BME280;53703;50.326;19.122;2023-05-17T01:53:36;98320.08;;;20.17;52.43
66801;BME280;53703;50.326;19.122;2023-05-17T01:56:34;98316.50;;;20.02;52.75
66801;BME280;53703;50.326;19.122;2023-05-17T01:59:34;98315.05;;;20.04;52.68
66801;BME280;53703;50.326;19.122;2023-05-17T02:02:31;98317.38;;;20.22;52.46
66801;BME280;53703;50.326;19.122;2023-05-17T02:05:25;98328.72;;;20.29;52.18
66801;BME280;53703;50.326;19.122;2023-05-17T02:08:26;98335.35;;;20.27;52.30
66801;BME280;53703;50.326;19.122;2023-05-17T02:11:21;98342.80;;;20.18;52.60
66801;BME280;53703;50.326;19.122;2023-05-17T02:14:15;98340.28;;;20.03;53.07
66801;BME280;53703;50.326;19.122;2023-05-17T02:17:09;98340.38;;;20.10;52.76
66801;BME280;53703;50.326;19.122;2023-05-17T02:20:04;98344.06;;;20.27;52.31
66801;BME280;53703;50.326;19.122;2023-05-17T02:23:00;98344.02;;;20.35;52.24
66801;BME280;53703;50.326;19.122;2023-05-17T02:25:55;98345.58;;;20.38;52.26
66801;BME280;53703;50.326;19.122;2023-05-17T02:28:49;98352.35;;;20.21;52.49
66801;BME280;53703;50.326;19.122;2023-05-17T02:31:43;98352.66;;;20.15;52.59
66801;BME280;53703;50.326;19.122;2023-05-17T02:34:37;98342.73;;;20.23;52.42
66801;BME280;53703;50.326;19.122;2023-05-17T02:37:32;98341.13;;;20.28;52.25
66801;BME280;53703;50.326;19.122;2023-05-17T02:40:26;98342.83;;;20.30;52.50
66801;BME280;53703;50.326;19.122;2023-05-17T02:43:20;98343.58;;;19.97;53.14
66801;BME280;53703;50.326;19.122;2023-05-17T02:46:15;98349.52;;;20.17;52.50
66801;BME280;53703;50.326;19.122;2023-05-17T02:49:09;98355.70;;;20.22;52.60
66801;BME280;53703;50.326;19.122;2023-05-17T02:52:03;98356.20;;;20.19;52.56
66801;BME280;53703;50.326;19.122;2023-05-17T02:54:57;98352.23;;;20.03;52.85
66801;BME280;53703;50.326;19.122;2023-05-17T02:57:51;98349.94;;;20.19;52.63
66801;BME280;53703;50.326;19.122;2023-05-17T03:00:53;98347.23;;;20.18;52.65
66801;BME280;53703;50.326;19.122;2023-05-17T03:03:57;98340.23;;;19.96;52.99
66801;BME280;53703;50.326;19.122;2023-05-17T03:06:54;98343.48;;;20.01;52.84
66801;BME280;53703;50.326;19.122;2023-05-17T03:09:48;98344.83;;;19.93;53.09
66801;BME280;53703;50.326;19.122;2023-05-17T03:12:42;98347.45;;;20.06;52.70
66801;BME280;53703;50.326;19.122;2023-05-17T03:15:37;98353.04;;;20.09;52.48
66801;BME280;53703;50.326;19.122;2023-05-17T03:18:31;98350.23;;;19.95;52.79
66801;BME280;53703;50.326;19.122;2023-05-17T03:21:25;98346.61;;;19.90;52.97
66801;BME280;53703;50.326;19.122;2023-05-17T03:24:19;98354.19;;;19.80;53.09
66801;BME280;53703;50.326;19.122;2023-05-17T03:27:13;98355.45;;;19.80;53.11
66801;BME280;53703;50.326;19.122;2023-05-17T03:30:10;98357.76;;;19.94;52.70
66801;BME280;53703;50.326;19.122;2023-05-17T03:33:04;98359.27;;;19.85;52.83
66801;BME280;53703;50.326;19.122;2023-05-17T03:35:59;98367.77;;;19.74;53.00
66801;BME280;53703;50.326;19.122;2023-05-17T03:38:53;98367.30;;;19.97;52.49
66801;BME280;53703;50.326;19.122;2023-05-17T03:41:47;98377.02;;;20.24;52.04
66801;BME280;53703;50.326;19.122;2023-05-17T03:44:42;98379.80;;;20.34;51.82
66801;BME280;53703;50.326;19.122;2023-05-17T03:47:35;98380.70;;;20.27;52.00
66801;BME280;53703;50.326;19.122;2023-05-17T03:50:31;98374.89;;;20.25;52.02
66801;BME280;53703;50.326;19.122;2023-05-17T03:53:17;98374.60;;;20.11;52.34
66801;BME280;53703;50.326;19.122;2023-05-17T03:56:12;98376.79;;;20.04;52.43
66801;BME280;53703;50.326;19.122;2023-05-17T04:12:19;98417.52;;;19.90;52.18
66801;BME280;53703;50.326;19.122;2023-05-17T04:15:14;98416.29;;;20.10;51.83
66801;BME280;53703;50.326;19.122;2023-05-17T04:18:09;98417.02;;;20.06;52.01
66801;BME280;53703;50.326;19.122;2023-05-17T04:21:03;98426.10;;;20.02;51.87
66801;BME280;53703;50.326;19.122;2023-05-17T04:23:57;98430.69;;;19.88;52.32
66801;BME280;53703;50.326;19.122;2023-05-17T04:26:51;98425.51;;;19.99;52.16
66801;BME280;53703;50.326;19.122;2023-05-17T04:29:45;98420.73;;;20.01;52.09
66801;BME280;53703;50.326;19.122;2023-05-17T04:32:39;98419.09;;;19.95;52.01
66801;BME280;53703;50.326;19.122;2023-05-17T04:35:34;98414.19;;;19.95;52.11
66801;BME280;53703;50.326;19.122;2023-05-17T04:38:30;98415.66;;;19.97;51.99
66801;BME280;53703;50.326;19.122;2023-05-17T04:41:24;98420.59;;;19.95;52.10
66801;BME280;53703;50.326;19.122;2023-05-17T04:44:19;98421.40;;;20.08;52.30
66801;BME280;53703;50.326;19.122;2023-05-17T04:47:13;98423.95;;;20.19;53.71
66801;BME280;53703;50.326;19.122;2023-05-17T04:50:08;98419.67;;;20.28;53.61
66801;BME280;53703;50.326;19.122;2023-05-17T04:53:03;98418.56;;;20.38;53.01
66801;BME280;53703;50.326;19.122;2023-05-17T04:55:57;98425.09;;;20.35;53.23
66801;BME280;53703;50.326;19.122;2023-05-17T04:58:51;98434.46;;;20.37;52.83
66801;BME280;53703;50.326;19.122;2023-05-17T05:01:45;98443.08;;;20.17;53.00
66801;BME280;53703;50.326;19.122;2023-05-17T05:11:27;98442.50;;;20.10;52.34
66801;BME280;53703;50.326;19.122;2023-05-17T05:14:50;98452.27;;;20.18;52.42
66801;BME280;53703;50.326;19.122;2023-05-17T05:17:44;98454.41;;;20.22;52.16
66801;BME280;53703;50.326;19.122;2023-05-17T05:20:40;98454.98;;;20.23;52.07
66801;BME280;53703;50.326;19.122;2023-05-17T05:23:35;98455.16;;;20.02;52.19
66801;BME280;53703;50.326;19.122;2023-05-17T05:26:29;98458.02;;;20.11;52.20
66801;BME280;53703;50.326;19.122;2023-05-17T05:29:23;98453.17;;;20.10;52.05
66801;BME280;53703;50.326;19.122;2023-05-17T05:32:17;98450.85;;;20.00;51.98
66801;BME280;53703;50.326;19.122;2023-05-17T05:35:12;98454.11;;;20.01;52.13
66801;BME280;53703;50.326;19.122;2023-05-17T05:38:06;98460.69;;;19.89;52.01
66801;BME280;53703;50.326;19.122;2023-05-17T05:41:00;98467.99;;;19.98;51.68
66801;BME280;53703;50.326;19.122;2023-05-17T05:43:54;98472.66;;;20.11;51.61
66801;BME280;53703;50.326;19.122;2023-05-17T05:46:40;98483.64;;;19.97;51.81
66801;BME280;53703;50.326;19.122;2023-05-17T05:49:35;98484.67;;;20.02;51.59
66801;BME280;53703;50.326;19.122;2023-05-17T05:52:29;98491.70;;;20.22;51.12
66801;BME280;53703;50.326;19.122;2023-05-17T05:55:23;98498.88;;;20.03;51.56
66801;BME280;53703;50.326;19.122;2023-05-17T05:58:18;98506.98;;;20.05;51.24
66801;BME280;53703;50.326;19.122;2023-05-17T06:01:12;98511.88;;;20.01;51.34
66801;BME280;53703;50.326;19.122;2023-05-17T06:04:06;98518.42;;;20.00;51.50
66801;BME280;53703;50.326;19.122;2023-05-17T06:07:01;98524.86;;;20.01;51.44
66801;BME280;53703;50.326;19.122;2023-05-17T06:09:55;98525.88;;;19.96;51.55
66801;BME280;53703;50.326;19.122;2023-05-17T06:12:49;98526.73;;;19.88;51.38
66801;BME280;53703;50.326;19.122;2023-05-17T06:15:44;98530.78;;;19.84;51.43
66801;BME280;53703;50.326;19.122;2023-05-17T06:18:38;98529.16;;;19.63;51.88
66801;BME280;53703;50.326;19.122;2023-05-17T06:21:32;98523.76;;;19.65;51.68
66801;BME280;53703;50.326;19.122;2023-05-17T06:24:27;98523.89;;;19.84;51.45
66801;BME280;53703;50.326;19.122;2023-05-17T06:27:21;98526.41;;;20.02;51.10
66801;BME280;53703;50.326;19.122;2023-05-17T06:30:16;98528.42;;;20.04;51.01
66801;BME280;53703;50.326;19.122;2023-05-17T06:33:10;98525.88;;;20.25;50.74
66801;BME280;53703;50.326;19.122;2023-05-17T06:36:05;98535.70;;;20.26;50.77
66801;BME280;53703;50.326;19.122;2023-05-17T06:38:59;98544.00;;;20.21;50.78
66801;BME280;53703;50.326;19.122;2023-05-17T06:41:53;98544.23;;;20.12;50.86
66801;BME280;53703;50.326;19.122;2023-05-17T06:44:47;98546.85;;;19.93;51.10
66801;BME280;53703;50.326;19.122;2023-05-17T06:47:42;98549.80;;;19.90;51.25
66801;BME280;53703;50.326;19.122;2023-05-17T06:50:39;98557.12;;;19.95;51.10
66801;BME280;53703;50.326;19.122;2023-05-17T06:53:33;98561.64;;;19.97;51.04
66801;BME280;53703;50.326;19.122;2023-05-17T06:56:27;98560.06;;;19.86;51.17
66801;BME280;53703;50.326;19.122;2023-05-17T06:59:22;98559.27;;;19.92;51.10
66801;BME280;53703;50.326;19.122;2023-05-17T07:02:19;98559.59;;;20.04;50.95
66801;BME280;53703;50.326;19.122;2023-05-17T07:05:13;98565.41;;;19.75;51.08
66801;BME280;53703;50.326;19.122;2023-05-17T07:08:08;98567.54;;;19.75;51.29
66801;BME280;53703;50.326;19.122;2023-05-17T07:11:05;98570.23;;;19.79;50.82
66801;BME280;53703;50.326;19.122;2023-05-17T07:13:59;98578.05;;;19.94;50.56
66801;BME280;53703;50.326;19.122;2023-05-17T07:16:53;98587.70;;;19.94;50.56
66801;BME280;53703;50.326;19.122;2023-05-17T07:19:47;98593.98;;;19.99;50.32
66801;BME280;53703;50.326;19.122;2023-05-17T07:22:42;98601.64;;;19.71;50.58
66801;BME280;53703;50.326;19.122;2023-05-17T07:26:13;98602.92;;;19.98;50.21
66801;BME280;53703;50.326;19.122;2023-05-17T07:29:07;98612.05;;;20.07;49.74
66801;BME280;53703;50.326;19.122;2023-05-17T07:32:02;98610.67;;;19.84;50.14
66801;BME280;53703;50.326;19.122;2023-05-17T07:34:56;98614.36;;;19.60;50.21
66801;BME280;53703;50.326;19.122;2023-05-17T07:37:50;98617.40;;;19.40;50.34
66801;BME280;53703;50.326;19.122;2023-05-17T07:40:44;98623.24;;;19.43;50.20
66801;BME280;53703;50.326;19.122;2023-05-17T07:43:40;98627.89;;;19.43;50.01
66801;BME280;53703;50.326;19.122;2023-05-17T07:46:34;98630.93;;;19.54;49.87
66801;BME280;53703;50.326;19.122;2023-05-17T07:49:31;98633.29;;;19.43;50.28
66801;BME280;53703;50.326;19.122;2023-05-17T07:52:25;98634.59;;;19.81;49.68
66801;BME280;53703;50.326;19.122;2023-05-17T07:55:19;98640.20;;;19.62;49.68
66801;BME280;53703;50.326;19.122;2023-05-17T07:58:13;98640.69;;;19.64;49.59
66801;BME280;53703;50.326;19.122;2023-05-17T08:01:08;98647.61;;;19.72;49.59
66801;BME280;53703;50.326;19.122;2023-05-17T08:04:02;98651.46;;;19.71;49.60
66801;BME280;53703;50.326;19.122;2023-05-17T08:06:56;98658.86;;;19.73;49.53
66801;BME280;53703;50.326;19.122;2023-05-17T08:09:52;98663.63;;;19.67;49.54
66801;BME280;53703;50.326;19.122;2023-05-17T08:12:48;98669.81;;;19.31;50.43
66801;BME280;53703;50.326;19.122;2023-05-17T08:15:42;98672.34;;;19.85;49.33
66801;BME280;53703;50.326;19.122;2023-05-17T08:18:36;98678.40;;;20.01;49.03
66801;BME280;53703;50.326;19.122;2023-05-17T08:21:30;98687.05;;;19.78;49.52
66801;BME280;53703;50.326;19.122;2023-05-17T08:24:24;98693.67;;;19.80;49.29
66801;BME280;53703;50.326;19.122;2023-05-17T08:27:19;98698.86;;;19.65;49.30
66801;BME280;53703;50.326;19.122;2023-05-17T08:30:13;98698.26;;;19.02;51.38
66801;BME280;53703;50.326;19.122;2023-05-17T08:33:20;98696.73;;;19.65;50.76
66801;BME280;53703;50.326;19.122;2023-05-17T08:36:17;98700.17;;;19.06;58.95
66801;BME280;53703;50.326;19.122;2023-05-17T08:39:11;98698.27;;;18.40;60.73
66801;BME280;53703;50.326;19.122;2023-05-17T08:42:09;98694.98;;;17.41;58.89
66801;BME280;53703;50.326;19.122;2023-05-17T08:45:03;98690.50;;;17.26;58.58
66801;BME280;53703;50.326;19.122;2023-05-17T08:47:58;98690.94;;;17.90;56.47
66801;BME280;53703;50.326;19.122;2023-05-17T08:50:54;98691.81;;;17.65;56.28
66801;BME280;53703;50.326;19.122;2023-05-17T08:53:49;98694.67;;;17.68;56.07
66801;BME280;53703;50.326;19.122;2023-05-17T08:56:45;98701.02;;;18.34;55.08
66801;BME280;53703;50.326;19.122;2023-05-17T08:59:44;98702.23;;;17.98;55.11
66801;BME280;53703;50.326;19.122;2023-05-17T09:02:39;98701.33;;;17.94;55.33
66801;BME280;53703;50.326;19.122;2023-05-17T09:05:34;98700.88;;;17.93;55.26
66801;BME280;53703;50.326;19.122;2023-05-17T09:08:29;98704.46;;;18.33;54.56
66801;BME280;53703;50.326;19.122;2023-05-17T09:11:29;98708.09;;;18.06;54.72
66801;BME280;53703;50.326;19.122;2023-05-17T09:14:25;98709.15;;;18.55;53.99
66801;BME280;53703;50.326;19.122;2023-05-17T09:17:25;98712.11;;;19.40;51.81
66801;BME280;53703;50.326;19.122;2023-05-17T09:20:27;98716.06;;;19.74;50.82
66801;BME280;53703;50.326;19.122;2023-05-17T09:23:25;98721.20;;;20.00;50.11
66801;BME280;53703;50.326;19.122;2023-05-17T09:26:19;98728.03;;;19.85;50.10
66801;BME280;53703;50.326;19.122;2023-05-17T09:29:16;98729.73;;;19.70;50.07
66801;BME280;53703;50.326;19.122;2023-05-17T09:32:17;98730.50;;;19.85;50.06
66801;BME280;53703;50.326;19.122;2023-05-17T09:35:12;98724.41;;;20.05;49.56
66801;BME280;53703;50.326;19.122;2023-05-17T09:38:10;98730.20;;;20.21;49.11
66801;BME280;53703;50.326;19.122;2023-05-17T09:41:05;98730.98;;;20.16;49.16
66801;BME280;53703;50.326;19.122;2023-05-17T09:44:02;98733.59;;;20.20;48.91
66801;BME280;53703;50.326;19.122;2023-05-17T09:47:03;98739.38;;;19.82;49.39
66801;BME280;53703;50.326;19.122;2023-05-17T09:49:58;98744.09;;;19.88;49.47
66801;BME280;53703;50.326;19.122;2023-05-17T09:52:54;98743.73;;;20.09;48.98
66801;BME280;53703;50.326;19.122;2023-05-17T09:55:52;98741.70;;;20.21;48.54
66801;BME280;53703;50.326;19.122;2023-05-17T09:58:49;98746.05;;;20.18;48.77
66801;BME280;53703;50.326;19.122;2023-05-17T10:01:44;98752.48;;;19.95;48.88
66801;BME280;53703;50.326;19.122;2023-05-17T10:04:42;98755.24;;;19.91;48.83
66801;BME280;53703;50.326;19.122;2023-05-17T10:07:38;98754.42;;;20.28;48.43
66801;BME280;53703;50.326;19.122;2023-05-17T10:10:36;98753.15;;;20.46;48.02
66801;BME280;53703;50.326;19.122;2023-05-17T10:13:35;98754.77;;;20.22;48.54
66801;BME280;53703;50.326;19.122;2023-05-17T10:16:31;98764.08;;;20.13;48.85
66801;BME280;53703;50.326;19.122;2023-05-17T10:19:26;98764.77;;;20.28;48.36
66801;BME280;53703;50.326;19.122;2023-05-17T10:22:21;98760.59;;;20.35;48.50
66801;BME280;53703;50.326;19.122;2023-05-17T10:25:16;98761.27;;;20.30;48.37
66801;BME280;53703;50.326;19.122;2023-05-17T10:28:11;98765.45;;;20.14;48.55
66801;BME280;53703;50.326;19.122;2023-05-17T10:31:09;98762.15;;;19.88;49.41
66801;BME280;53703;50.326;19.122;2023-05-17T10:34:06;98766.91;;;20.05;48.87
66801;BME280;53703;50.326;19.122;2023-05-17T10:37:02;98768.98;;;20.17;48.91
66801;BME280;53703;50.326;19.122;2023-05-17T10:39:56;98772.52;;;20.26;48.27
66801;BME280;53703;50.326;19.122;2023-05-17T10:42:52;98778.71;;;20.03;48.52
66801;BME280;53703;50.326;19.122;2023-05-17T10:45:47;98778.46;;;20.09;48.61
66801;BME280;53703;50.326;19.122;2023-05-17T10:48:42;98788.27;;;19.93;48.41
66801;BME280;53703;50.326;19.122;2023-05-17T10:51:38;98790.08;;;20.15;48.26
66801;BME280;53703;50.326;19.122;2023-05-17T10:54:39;98788.14;;;19.77;48.62
66801;BME280;53703;50.326;19.122;2023-05-17T10:57:38;98793.44;;;19.33;50.38
66801;BME280;53703;50.326;19.122;2023-05-17T11:00:43;98798.04;;;20.10;48.67
66801;BME280;53703;50.326;19.122;2023-05-17T11:03:38;98804.37;;;20.34;48.15
66801;BME280;53703;50.326;19.122;2023-05-17T11:06:37;98805.77;;;20.40;48.29
66801;BME280;53703;50.326;19.122;2023-05-17T11:09:33;98812.74;;;20.44;48.16
66801;BME280;53703;50.326;19.122;2023-05-17T11:12:33;98813.61;;;20.23;48.12
66801;BME280;53703;50.326;19.122;2023-05-17T11:16:09;98824.59;;;20.32;48.32
66801;BME280;53703;50.326;19.122;2023-05-17T11:19:31;98825.02;;;20.24;48.48
66801;BME280;53703;50.326;19.122;2023-05-17T11:22:27;98829.84;;;20.27;48.09
66801;BME280;53703;50.326;19.122;2023-05-17T11:25:39;98831.15;;;20.38;48.05
66801;BME280;53703;50.326;19.122;2023-05-17T11:28:34;98833.66;;;20.38;48.03
66801;BME280;53703;50.326;19.122;2023-05-17T11:31:34;98833.42;;;20.38;48.19
66801;BME280;53703;50.326;19.122;2023-05-17T11:34:28;98829.95;;;20.17;48.08
66801;BME280;53703;50.326;19.122;2023-05-17T11:37:29;98835.73;;;20.20;48.11
66801;BME280;53703;50.326;19.122;2023-05-17T11:40:30;98835.54;;;20.22;48.09
66801;BME280;53703;50.326;19.122;2023-05-17T11:43:25;98836.16;;;20.29;48.16
66801;BME280;53703;50.326;19.122;2023-05-17T11:46:23;98836.32;;;20.26;48.02
66801;BME280;53703;50.326;19.122;2023-05-17T11:49:17;98841.19;;;20.27;48.18
66801;BME280;53703;50.326;19.122;2023-05-17T11:52:25;98840.30;;;20.33;48.32
66801;BME280;53703;50.326;19.122;2023-05-17T11:55:21;98835.28;;;20.54;48.24
66801;BME280;53703;50.326;19.122;2023-05-17T11:58:17;98834.80;;;20.39;48.73
66801;BME280;53703;50.326;19.122;2023-05-17T12:01:11;98835.88;;;20.63;48.77
66801;BME280;53703;50.326;19.122;2023-05-17T12:04:05;98830.83;;;20.63;49.50
66801;BME280;53703;50.326;19.122;2023-05-17T12:06:59;98836.20;;;20.52;50.34
66801;BME280;53703;50.326;19.122;2023-05-17T12:09:54;98841.59;;;20.59;50.36
66801;BME280;53703;50.326;19.122;2023-05-17T12:12:48;98847.42;;;20.48;50.46
66801;BME280;53703;50.326;19.122;2023-05-17T12:15:45;98852.85;;;20.53;50.00
66801;BME280;53703;50.326;19.122;2023-05-17T12:18:41;98858.52;;;20.77;49.76
66801;BME280;53703;50.326;19.122;2023-05-17T12:21:37;98865.80;;;20.74;49.74
66801;BME280;53703;50.326;19.122;2023-05-17T12:24:40;98870.56;;;20.70;49.53
66801;BME280;53703;50.326;19.122;2023-05-17T12:27:34;98879.87;;;19.06;49.95
66801;BME280;53703;50.326;19.122;2023-05-17T12:30:29;98889.39;;;20.01;49.38
66801;BME280;53703;50.326;19.122;2023-05-17T12:33:23;98884.54;;;20.23;48.70
66801;BME280;53703;50.326;19.122;2023-05-17T12:36:18;98890.68;;;20.52;48.03
66801;BME280;53703;50.326;19.122;2023-05-17T12:39:13;98897.58;;;19.81;49.48
66801;BME280;53703;50.326;19.122;2023-05-17T12:42:08;98899.42;;;20.32;48.57
66801;BME280;53703;50.326;19.122;2023-05-17T12:45:03;98899.42;;;20.26;48.34
66801;BME280;53703;50.326;19.122;2023-05-17T12:47:59;98895.64;;;20.33;48.31
66801;BME280;53703;50.326;19.122;2023-05-17T12:50:53;98897.36;;;20.22;48.06
66801;BME280;53703;50.326;19.122;2023-05-17T12:53:52;98898.30;;;20.22;47.95
66801;BME280;53703;50.326;19.122;2023-05-17T12:56:46;98900.36;;;20.25;48.08
66801;BME280;53703;50.326;19.122;2023-05-17T12:59:51;98899.54;;;20.27;47.92
66801;BME280;53703;50.326;19.122;2023-05-17T13:02:46;98904.60;;;20.24;47.84
66801;BME280;53703;50.326;19.122;2023-05-17T13:05:40;98907.56;;;20.25;47.87
66801;BME280;53703;50.326;19.122;2023-05-17T13:08:36;98909.19;;;20.20;47.47
66801;BME280;53703;50.326;19.122;2023-05-17T13:11:30;98909.00;;;20.25;47.31
66801;BME280;53703;50.326;19.122;2023-05-17T13:14:40;98913.34;;;20.21;47.22
66801;BME280;53703;50.326;19.122;2023-05-17T13:17:38;98914.36;;;20.21;46.95
66801;BME280;53703;50.326;19.122;2023-05-17T13:20:36;98910.88;;;20.28;47.12
66801;BME280;53703;50.326;19.122;2023-05-17T13:23:30;98908.21;;;20.23;47.10
66801;BME280;53703;50.326;19.122;2023-05-17T13:26:24;98911.60;;;20.22;46.80
66801;BME280;53703;50.326;19.122;2023-05-17T13:29:19;98912.09;;;20.29;46.87
66801;BME280;53703;50.326;19.122;2023-05-17T13:32:31;98920.31;;;20.19;46.72
66801;BME280;53703;50.326;19.122;2023-05-17T13:35:25;98924.56;;;20.18;47.00
66801;BME280;53703;50.326;19.122;2023-05-17T13:38:19;98929.13;;;20.23;46.84
66801;BME280;53703;50.326;19.122;2023-05-17T13:41:13;98937.86;;;20.28;46.99
66801;BME280;53703;50.326;19.122;2023-05-17T13:44:07;98944.44;;;20.27;46.78
66801;BME280;53703;50.326;19.122;2023-05-17T13:47:02;98944.02;;;20.27;46.85
66801;BME280;53703;50.326;19.122;2023-05-17T13:49:56;98943.87;;;20.30;46.70
66801;BME280;53703;50.326;19.122;2023-05-17T13:52:50;98943.38;;;20.32;47.04
66801;BME280;53703;50.326;19.122;2023-05-17T13:55:44;98947.25;;;20.33;46.88
66801;BME280;53703;50.326;19.122;2023-05-17T13:58:38;98950.86;;;20.28;47.01
66801;BME280;53703;50.326;19.122;2023-05-17T14:01:36;98953.48;;;20.25;46.87
66801;BME280;53703;50.326;19.122;2023-05-17T14:04:30;98956.20;;;20.23;47.07
66801;BME280;53703;50.326;19.122;2023-05-17T14:07:25;98954.75;;;20.22;46.93
66801;BME280;53703;50.326;19.122;2023-05-17T14:10:19;98954.86;;;20.23;46.85
66801;BME280;53703;50.326;19.122;2023-05-17T14:13:14;98961.46;;;20.25;46.70
66801;BME280;53703;50.326;19.122;2023-05-17T14:16:08;98961.80;;;20.25;46.73
66801;BME280;53703;50.326;19.122;2023-05-17T14:19:04;98966.14;;;20.24;46.79
66801;BME280;53703;50.326;19.122;2023-05-17T14:21:58;98967.59;;;20.16;46.75
66801;BME280;53703;50.326;19.122;2023-05-17T14:24:52;98973.40;;;20.11;46.63
66801;BME280;53703;50.326;19.122;2023-05-17T14:27:47;98976.48;;;20.24;46.46
66801;BME280;53703;50.326;19.122;2023-05-17T14:30:41;98978.45;;;20.23;46.70
66801;BME280;53703;50.326;19.122;2023-05-17T14:33:36;98987.80;;;20.27;46.50
66801;BME280;53703;50.326;19.122;2023-05-17T14:36:30;98984.75;;;20.28;46.64
66801;BME280;53703;50.326;19.122;2023-05-17T14:39:27;98987.07;;;20.26;46.54
66801;BME280;53703;50.326;19.122;2023-05-17T14:42:21;98993.04;;;20.26;46.76
66801;BME280;53703;50.326;19.122;2023-05-17T14:45:17;98990.84;;;20.25;46.65
66801;BME280;53703;50.326;19.122;2023-05-17T14:48:11;98989.83;;;20.25;46.63
66801;BME280;53703;50.326;19.122;2023-05-17T14:51:06;98989.31;;;20.20;46.51
66801;BME280;53703;50.326;19.122;2023-05-17T14:54:00;98992.54;;;20.10;46.57
66801;BME280;53703;50.326;19.122;2023-05-17T14:56:55;98994.40;;;19.97;46.62
66801;BME280;53703;50.326;19.122;2023-05-17T14:59:50;98997.54;;;20.20;46.61
66801;BME280;53703;50.326;19.122;2023-05-17T15:02:44;98992.42;;;20.27;46.54
66801;BME280;53703;50.326;19.122;2023-05-17T15:05:38;98990.64;;;20.20;46.70
66801;BME280;53703;50.326;19.122;2023-05-17T15:08:33;98998.45;;;20.25;46.60
66801;BME280;53703;50.326;19.122;2023-05-17T15:11:38;98997.56;;;20.24;46.33
66801;BME280;53703;50.326;19.122;2023-05-17T15:14:13;98998.40;;;20.22;46.33
66801;BME280;53703;50.326;19.122;2023-05-17T15:17:14;99000.34;;;20.27;46.47
66801;BME280;53703;50.326;19.122;2023-05-17T15:20:11;99004.92;;;20.24;46.43
66801;BME280;53703;50.326;19.122;2023-05-17T15:23:05;99011.95;;;20.17;46.56
66801;BME280;53703;50.326;19.122;2023-05-17T15:25:59;99013.01;;;20.24;46.34
66801;BME280;53703;50.326;19.122;2023-05-17T15:28:53;99014.88;;;20.20;46.54
66801;BME280;53703;50.326;19.122;2023-05-17T15:31:47;99015.00;;;20.06;46.71
66801;BME280;53703;50.326;19.122;2023-05-17T15:34:41;99023.27;;;20.13;46.59
66801;BME280;53703;50.326;19.122;2023-05-17T15:37:36;99025.38;;;20.16;46.44
66801;BME280;53703;50.326;19.122;2023-05-17T15:40:31;99030.39;;;20.08;46.74
66801;BME280;53703;50.326;19.122;2023-05-17T15:43:25;99033.45;;;20.19;46.96
66801;BME280;53703;50.326;19.122;2023-05-17T15:46:19;99036.75;;;20.14;46.93
66801;BME280;53703;50.326;19.122;2023-05-17T15:49:14;99041.89;;;20.30;46.59
66801;BME280;53703;50.326;19.122;2023-05-17T15:52:09;99041.62;;;20.34;46.86
66801;BME280;53703;50.326;19.122;2023-05-17T15:55:05;99042.95;;;20.50;46.94
66801;BME280;53703;50.326;19.122;2023-05-17T15:58:00;99037.80;;;20.31;47.81
66801;BME280;53703;50.326;19.122;2023-05-17T16:01:06;99040.01;;;20.34;48.19
66801;BME280;53703;50.326;19.122;2023-05-17T16:04:00;99039.91;;;20.21;49.74
66801;BME280;53703;50.326;19.122;2023-05-17T16:06:54;99038.20;;;20.59;49.33
66801;BME280;53703;50.326;19.122;2023-05-17T16:09:48;99041.06;;;20.50;48.56
66801;BME280;53703;50.326;19.122;2023-05-17T16:12:43;99044.08;;;20.47;49.04
66801;BME280;53703;50.326;19.122;2023-05-17T16:15:39;99046.55;;;20.83;47.85